Time;durP1;ratioP1;P1;durP2;ratioP2;P2;SDS_P1;SDS_P2;PMS_P1;PMS_P2;Temp;Humidity;BMP_temperature;BMP_pressure;BME280_temperature;BME280_humidity;BME280_pressure;Samples;Min_cycle;Max_cycle;Signal;HPM_P1;HPM_P2
2021/12/26 00:00:47;;;;;;;3.60;1.17;;;-5.00;99.90;;;;;;5046657;28;20377;-84
2021/12/26 00:03:22;;;;;;;3.30;1.40;;;-5.00;99.90;;;;;;5050931;28;20960;-83
2021/12/26 00:05:52;;;;;;;4.28;1.27;;;-5.00;99.90;;;;;;5033270;28;20766;-83
2021/12/26 00:08:20;;;;;;;4.00;1.38;;;-5.00;99.90;;;;;;5049533;28;20765;-83
2021/12/26 00:10:48;;;;;;;3.35;1.30;;;-4.90;99.90;;;;;;5051170;28;20399;-84
2021/12/26 00:13:20;;;;;;;3.65;1.20;;;-4.90;99.90;;;;;;5053579;28;20513;-84
2021/12/26 00:15:48;;;;;;;3.22;1.23;;;-4.80;99.90;;;;;;5034119;28;20392;-83
2021/12/26 00:18:16;;;;;;;2.85;1.17;;;-4.70;99.90;;;;;;5034504;28;20390;-83
2021/12/26 00:20:45;;;;;;;2.63;1.10;;;-4.70;99.90;;;;;;5039996;28;20881;-83
2021/12/26 00:23:14;;;;;;;2.47;1.00;;;-4.70;99.90;;;;;;5054366;28;20445;-82
2021/12/26 00:25:42;;;;;;;2.13;1.02;;;-4.70;99.90;;;;;;5041389;28;20393;-82
2021/12/26 00:28:11;;;;;;;3.70;1.20;;;-4.60;99.90;;;;;;5034502;28;20385;-83
2021/12/26 00:30:39;;;;;;;2.70;1.00;;;-4.60;99.90;;;;;;5050837;28;20757;-84
2021/12/26 00:33:07;;;;;;;2.50;1.13;;;-4.60;99.90;;;;;;5034094;28;20389;-82
2021/12/26 00:35:34;;;;;;;3.60;1.17;;;-4.50;99.90;;;;;;5034378;28;20492;-83
2021/12/26 00:38:03;;;;;;;3.20;1.10;;;-4.60;99.90;;;;;;5034360;28;20468;-83
2021/12/26 00:40:32;;;;;;;2.85;1.00;;;-4.50;99.90;;;;;;5034237;28;20756;-82
2021/12/26 00:43:00;;;;;;;2.43;0.90;;;-4.50;99.90;;;;;;5034372;28;20432;-84
2021/12/26 00:45:28;;;;;;;3.00;1.10;;;-4.50;99.90;;;;;;5034073;28;20390;-83
2021/12/26 00:47:56;;;;;;;2.38;0.80;;;-4.50;99.90;;;;;;5034037;28;20413;-83
2021/12/26 00:50:30;;;;;;;2.10;0.82;;;-4.50;99.90;;;;;;5048938;28;20419;-83
2021/12/26 00:52:58;;;;;;;2.45;1.00;;;-4.50;99.90;;;;;;5052747;28;20427;-83
2021/12/26 00:55:27;;;;;;;2.42;1.00;;;-4.50;99.90;;;;;;5052649;28;20380;-83
2021/12/26 00:57:54;;;;;;;2.90;1.00;;;-4.40;99.90;;;;;;5054011;28;20383;-84
2021/12/26 01:00:30;;;;;;;2.97;1.17;;;-4.40;99.90;;;;;;5052491;28;20410;-82
2021/12/26 01:03:00;;;;;;;5.20;1.60;;;-4.40;99.90;;;;;;5052532;28;20876;-82
2021/12/26 01:05:29;;;;;;;2.47;1.20;;;-4.40;99.90;;;;;;5052490;28;20426;-83
2021/12/26 01:07:59;;;;;;;2.70;1.17;;;-4.40;99.90;;;;;;5052408;28;20785;-83
2021/12/26 01:10:34;;;;;;;3.83;1.15;;;-4.40;99.90;;;;;;5035813;28;20397;-82
2021/12/26 01:13:16;;;;;;;4.00;1.33;;;-4.40;99.90;;;;;;5032311;28;20834;-84
2021/12/26 01:15:46;;;;;;;4.50;1.40;;;-4.40;99.90;;;;;;5032538;28;20401;-83
2021/12/26 01:18:19;;;;;;;2.88;1.10;;;-4.40;99.90;;;;;;5032252;28;20761;-83
2021/12/26 01:20:54;;;;;;;3.90;1.40;;;-4.30;99.90;;;;;;5032519;28;20842;-83
2021/12/26 01:23:25;;;;;;;5.17;1.27;;;-4.20;99.90;;;;;;5032202;28;20394;-83
2021/12/26 01:25:55;;;;;;;3.33;1.20;;;-4.30;99.90;;;;;;5032095;28;20401;-82
2021/12/26 01:28:28;;;;;;;2.50;1.20;;;-4.30;99.90;;;;;;5031967;28;20425;-82
2021/12/26 01:31:00;;;;;;;2.72;1.10;;;-4.30;99.90;;;;;;5031608;28;20491;-83
2021/12/26 01:33:30;;;;;;;2.83;1.10;;;-4.20;99.90;;;;;;5017803;28;20463;-82
2021/12/26 01:36:16;;;;;;;4.53;1.30;;;-4.30;99.90;;;;;;5036051;28;20880;-83
2021/12/26 01:39:03;;;;;;;3.40;1.20;;;-4.30;99.90;;;;;;5051792;28;20398;-82
2021/12/26 01:41:40;;;;;;;2.65;1.20;;;-4.30;99.90;;;;;;5051712;28;20396;-81
2021/12/26 01:44:26;;;;;;;2.97;1.00;;;-4.30;99.90;;;;;;5032046;28;20892;-84
2021/12/26 01:46:55;;;;;;;3.15;1.27;;;-4.40;99.90;;;;;;5031706;28;20393;-81
2021/12/26 01:49:30;;;;;;;2.77;1.13;;;-4.40;99.90;;;;;;5031574;28;20416;-82
2021/12/26 01:52:01;;;;;;;2.33;1.00;;;-4.40;99.90;;;;;;5015144;28;20406;-82
2021/12/26 01:57:04;;;;;;;5.80;1.20;;;-4.40;99.90;;;;;;5031687;28;20402;-81
2021/12/26 01:59:33;;;;;;;4.00;1.10;;;-4.40;99.90;;;;;;5031491;28;20393;-82
2021/12/26 02:02:13;;;;;;;5.97;1.30;;;-4.40;99.90;;;;;;5031337;28;20896;-82
2021/12/26 02:04:43;;;;;;;2.60;1.10;;;-4.40;99.90;;;;;;5031312;28;20452;-83
2021/12/26 02:07:12;;;;;;;5.53;1.13;;;-4.40;99.90;;;;;;5031441;28;20448;-82
2021/12/26 02:09:43;;;;;;;3.55;1.20;;;-4.40;99.90;;;;;;5015472;28;20404;-82
2021/12/26 02:12:16;;;;;;;3.83;1.20;;;-4.50;99.90;;;;;;5031208;28;20821;-83
2021/12/26 02:14:45;;;;;;;4.47;1.20;;;-4.50;99.90;;;;;;5045729;28;20476;-81
2021/12/26 02:17:31;;;;;;;2.50;1.30;;;-4.40;99.90;;;;;;5032661;28;20459;-81
2021/12/26 02:20:23;;;;;;;2.50;1.00;;;-4.50;99.90;;;;;;5047685;28;20447;-81
2021/12/26 02:22:57;;;;;;;3.72;1.15;;;-4.50;99.90;;;;;;5047657;28;20887;-82
2021/12/26 02:27:54;;;;;;;4.03;1.13;;;-4.50;99.90;;;;;;5036223;28;20394;-83
2021/12/26 02:30:23;;;;;;;3.63;1.15;;;-4.50;99.90;;;;;;5014789;28;20767;-83
2021/12/26 02:32:58;;;;;;;4.95;1.20;;;-4.50;99.90;;;;;;5014253;28;20413;-82
2021/12/26 02:35:26;;;;;;;4.50;1.27;;;-4.50;99.90;;;;;;5032274;28;20389;-83
2021/12/26 02:37:54;;;;;;;4.95;1.20;;;-4.50;99.90;;;;;;5030789;28;20414;-82
2021/12/26 02:40:23;;;;;;;4.45;1.42;;;-4.50;99.90;;;;;;5032186;28;20393;-82
2021/12/26 02:42:50;;;;;;;4.18;1.10;;;-4.60;99.90;;;;;;5030819;28;20448;-81
2021/12/26 02:45:20;;;;;;;3.20;1.00;;;-4.50;99.90;;;;;;5030805;28;20405;-83
2021/12/26 02:47:49;;;;;;;5.57;1.42;;;-4.50;99.90;;;;;;5041874;28;20745;-82
2021/12/26 02:50:28;;;;;;;2.40;1.10;;;-4.60;99.90;;;;;;5029800;28;20396;-82
2021/12/26 02:52:57;;;;;;;5.43;1.05;;;-4.60;99.90;;;;;;5050375;28;20912;-83
2021/12/26 02:55:26;;;;;;;3.40;1.05;;;-4.60;99.90;;;;;;5050365;28;20445;-82
2021/12/26 02:57:59;;;;;;;4.05;1.17;;;-4.60;99.90;;;;;;5032465;28;20823;-82
2021/12/26 03:00:31;;;;;;;5.35;1.40;;;-4.60;99.90;;;;;;5030402;28;20455;-82
2021/12/26 03:03:02;;;;;;;4.27;1.23;;;-4.60;99.90;;;;;;5031772;28;20413;-82
2021/12/26 03:05:35;;;;;;;2.95;1.02;;;-4.60;99.90;;;;;;5030329;28;20393;-81
2021/12/26 03:08:05;;;;;;;3.55;1.00;;;-4.60;99.90;;;;;;5030219;28;20425;-81
2021/12/26 03:10:34;;;;;;;2.80;1.13;;;-4.60;99.90;;;;;;5030209;28;20459;-81
2021/12/26 03:13:05;;;;;;;3.65;1.00;;;-4.60;99.90;;;;;;5030174;28;20422;-82
2021/12/26 03:15:33;;;;;;;3.03;0.98;;;-4.60;99.90;;;;;;5013975;28;20421;-82
2021/12/26 03:18:03;;;;;;;4.10;1.17;;;-4.60;99.90;;;;;;5030218;28;20397;-82
2021/12/26 03:20:38;;;;;;;4.65;1.10;;;-4.60;99.90;;;;;;5031358;28;20424;-83
2021/12/26 03:23:08;;;;;;;2.20;0.90;;;-4.60;99.90;;;;;;5013953;28;20404;-83
2021/12/26 03:25:36;;;;;;;2.10;0.85;;;-4.60;99.90;;;;;;5030108;28;20826;-82
2021/12/26 03:28:06;;;;;;;2.00;1.00;;;-4.60;99.90;;;;;;5029966;28;20807;-82
2021/12/26 03:30:35;;;;;;;2.38;0.80;;;-4.70;99.90;;;;;;5035412;28;20392;-81
2021/12/26 03:33:06;;;;;;;1.73;0.90;;;-4.70;99.90;;;;;;5048679;28;20411;-81
2021/12/26 03:35:36;;;;;;;2.47;1.10;;;-4.80;99.90;;;;;;5050183;28;20434;-82
2021/12/26 03:38:06;;;;;;;2.97;1.17;;;-4.80;99.90;;;;;;5049897;28;20807;-82
2021/12/26 03:40:55;;;;;;;3.15;0.90;;;-4.80;99.90;;;;;;5039555;28;20892;-82
2021/12/26 03:43:24;;;;;;;2.42;0.82;;;-4.80;99.90;;;;;;5049907;28;20414;-82
2021/12/26 03:45:54;;;;;;;1.73;0.70;;;-4.80;99.90;;;;;;5052978;28;20414;-83
2021/12/26 03:48:24;;;;;;;1.70;0.80;;;-4.80;99.90;;;;;;5055246;28;20380;-84
2021/12/26 03:50:53;;;;;;;2.88;0.82;;;-4.80;99.90;;;;;;5053948;28;20468;-81
2021/12/26 03:53:22;;;;;;;2.55;0.80;;;-4.80;99.90;;;;;;5053705;28;20404;-83
2021/12/26 03:55:50;;;;;;;6.10;1.20;;;-4.80;99.90;;;;;;5055410;28;20384;-82
2021/12/26 03:58:20;;;;;;;4.00;0.90;;;-4.90;99.90;;;;;;5053684;28;20388;-83
2021/12/26 04:00:49;;;;;;;1.60;0.73;;;-4.80;99.90;;;;;;5052457;28;20423;-82
2021/12/26 04:03:20;;;;;;;2.30;0.80;;;-4.80;99.90;;;;;;5052295;28;20396;-82
2021/12/26 04:05:56;;;;;;;1.55;0.70;;;-4.90;99.90;;;;;;5050086;28;20841;-82
2021/12/26 04:08:25;;;;;;;1.60;0.80;;;-5.00;99.90;;;;;;5033870;28;20398;-82
2021/12/26 04:10:53;;;;;;;2.33;0.90;;;-5.00;99.90;;;;;;5034083;28;20459;-82
2021/12/26 04:13:22;;;;;;;2.05;0.90;;;-5.00;99.90;;;;;;5041394;28;20811;-82
2021/12/26 04:15:50;;;;;;;2.05;1.05;;;-5.00;99.90;;;;;;5052375;28;20401;-80
2021/12/26 04:18:18;;;;;;;1.75;0.90;;;-5.00;99.90;;;;;;5036787;28;20830;-82
2021/12/26 04:20:46;;;;;;;1.55;0.90;;;-5.00;99.90;;;;;;5054608;28;20419;-83
2021/12/26 04:23:15;;;;;;;1.70;0.90;;;-5.10;99.90;;;;;;5053186;28;20402;-81
2021/12/26 04:25:44;;;;;;;3.15;0.93;;;-5.20;99.90;;;;;;5053192;28;20808;-82
2021/12/26 04:28:12;;;;;;;1.58;0.77;;;-5.20;99.90;;;;;;5049597;28;20791;-82
2021/12/26 04:30:41;;;;;;;2.05;0.80;;;-5.20;99.90;;;;;;5049603;28;20397;-83
2021/12/26 04:33:10;;;;;;;1.70;0.90;;;-5.30;99.90;;;;;;5016900;28;20768;-81
2021/12/26 04:35:38;;;;;;;3.55;1.00;;;-5.30;99.90;;;;;;5033065;28;20403;-82
2021/12/26 04:38:08;;;;;;;2.73;1.10;;;-5.50;99.90;;;;;;5032963;28;20903;-81
2021/12/26 04:40:36;;;;;;;2.33;0.65;;;-5.60;99.90;;;;;;5034142;28;20394;-82
2021/12/26 04:43:27;;;;;;;2.90;0.80;;;-5.60;99.90;;;;;;5034030;28;20986;-82
2021/12/26 04:46:08;;;;;;;2.80;0.80;;;-5.70;99.90;;;;;;5032945;28;20473;-81
2021/12/26 04:48:52;;;;;;;2.95;0.80;;;-5.80;99.90;;;;;;5032882;28;20903;-81
2021/12/26 04:51:20;;;;;;;3.40;1.00;;;-5.80;99.90;;;;;;5032850;28;20405;-83
2021/12/26 04:53:54;;;;;;;2.03;0.90;;;-5.70;99.90;;;;;;5017354;28;20402;-82
2021/12/26 04:56:22;;;;;;;3.72;0.70;;;-5.80;99.90;;;;;;5015971;28;20511;-82
2021/12/26 04:58:51;;;;;;;1.75;0.88;;;-5.80;99.90;;;;;;5035106;28;20413;-81
2021/12/26 05:01:19;;;;;;;2.75;1.10;;;-5.90;99.90;;;;;;5053824;28;20394;-81
2021/12/26 05:03:47;;;;;;;3.33;0.80;;;-6.00;99.90;;;;;;5053836;28;20391;-82
2021/12/26 05:06:14;;;;;;;2.37;0.80;;;-6.10;99.90;;;;;;5053900;28;20388;-81
2021/12/26 05:08:42;;;;;;;3.92;0.88;;;-6.10;99.90;;;;;;5052692;28;20399;-82
2021/12/26 05:11:10;;;;;;;1.65;0.70;;;-6.30;99.90;;;;;;5052482;28;20392;-81
2021/12/26 05:13:38;;;;;;;3.60;0.90;;;-6.30;99.90;;;;;;5035959;28;20408;-83
2021/12/26 05:16:05;;;;;;;2.97;0.77;;;-6.30;99.90;;;;;;5052203;28;20874;-80
2021/12/26 05:18:33;;;;;;;2.15;0.90;;;-6.40;99.90;;;;;;5052287;28;20474;-83
2021/12/26 05:21:04;;;;;;;1.95;0.88;;;-6.40;99.90;;;;;;5036186;28;20392;-82
2021/12/26 05:23:32;;;;;;;1.95;0.80;;;-6.40;99.90;;;;;;5042194;28;20410;-82
2021/12/26 05:26:01;;;;;;;2.17;0.70;;;-6.50;99.90;;;;;;5035671;28;20813;-81
2021/12/26 05:28:31;;;;;;;2.13;0.80;;;-6.60;99.90;;;;;;5052135;28;20396;-82
2021/12/26 05:30:59;;;;;;;2.20;0.80;;;-6.60;99.90;;;;;;5051814;28;20392;-81
2021/12/26 05:33:31;;;;;;;4.60;0.90;;;-6.70;99.90;;;;;;5036187;28;20882;-81
2021/12/26 05:36:00;;;;;;;2.83;0.88;;;-6.70;99.90;;;;;;5051640;28;20392;-83
2021/12/26 05:38:31;;;;;;;3.35;1.00;;;-6.70;99.90;;;;;;5032012;28;20397;-81
2021/12/26 05:40:59;;;;;;;2.17;0.80;;;-6.80;99.90;;;;;;5031943;28;20394;-80
2021/12/26 05:43:27;;;;;;;4.78;1.10;;;-6.80;99.90;;;;;;5031830;28;20412;-82
2021/12/26 05:45:56;;;;;;;2.33;0.90;;;-6.80;99.90;;;;;;5032023;28;20397;-82
2021/12/26 05:48:24;;;;;;;1.73;0.82;;;-6.90;99.90;;;;;;5053048;28;20793;-81
2021/12/26 05:50:52;;;;;;;3.42;0.80;;;-7.00;99.90;;;;;;5035166;28;20423;-81
2021/12/26 05:53:49;;;;;;;2.03;0.80;;;-7.10;99.90;;;;;;5043406;28;20412;-81
2021/12/26 05:56:18;;;;;;;2.00;0.80;;;-7.20;99.90;;;;;;5031792;28;20922;-81
2021/12/26 05:58:53;;;;;;;3.92;0.90;;;-7.20;99.90;;;;;;5031801;28;20389;-81
2021/12/26 06:01:22;;;;;;;2.40;0.90;;;-7.20;99.90;;;;;;5046850;28;20495;-81
2021/12/26 06:03:50;;;;;;;1.60;0.80;;;-7.20;99.90;;;;;;5046308;28;20591;-81
2021/12/26 06:06:18;;;;;;;2.47;1.00;;;-7.40;99.90;;;;;;5052578;28;20474;-81
2021/12/26 06:08:47;;;;;;;3.45;1.10;;;-7.40;99.90;;;;;;5041368;28;20428;-83
2021/12/26 06:11:14;;;;;;;2.85;0.90;;;-7.40;99.90;;;;;;5038955;28;20904;-81
2021/12/26 06:13:44;;;;;;;2.92;1.00;;;-7.60;99.90;;;;;;5019042;28;20896;-82
2021/12/26 06:16:12;;;;;;;4.93;0.95;;;-7.60;99.90;;;;;;5043033;28;20908;-81
2021/12/26 06:18:40;;;;;;;3.47;1.03;;;-7.60;99.90;;;;;;5041895;28;20396;-81
2021/12/26 06:21:26;;;;;;;3.15;1.33;;;-7.70;99.90;;;;;;5036415;28;20405;-82
2021/12/26 06:23:57;;;;;;;2.13;1.00;;;-7.70;99.90;;;;;;5042249;28;20753;-82
2021/12/26 06:26:31;;;;;;;2.78;1.30;;;-7.70;99.90;;;;;;5042665;28;20879;-81
2021/12/26 06:29:07;;;;;;;1.85;1.00;;;-7.70;99.90;;;;;;5036400;28;20402;-80
2021/12/26 06:31:41;;;;;;;2.45;1.30;;;-7.50;99.90;;;;;;5039544;28;20697;-83
2021/12/26 06:34:27;;;;;;;4.43;1.20;;;-7.40;99.90;;;;;;5034918;28;20381;-82
2021/12/26 06:37:13;;;;;;;2.50;1.00;;;-7.50;99.90;;;;;;5032331;28;20391;-82
2021/12/26 06:40:00;;;;;;;3.20;1.20;;;-7.60;99.90;;;;;;5032475;28;20409;-82
2021/12/26 06:43:03;;;;;;;2.63;1.05;;;-7.60;99.90;;;;;;4989241;28;20760;-80
2021/12/26 06:45:49;;;;;;;3.22;1.00;;;-7.90;99.90;;;;;;5047492;28;20386;-81
2021/12/26 06:48:44;;;;;;;3.13;1.17;;;-7.90;99.90;;;;;;5022770;28;20447;-82
2021/12/26 06:51:11;;;;;;;3.90;0.98;;;-8.00;99.90;;;;;;5050697;28;20490;-82
2021/12/26 06:53:39;;;;;;;2.40;1.20;;;-8.10;99.90;;;;;;5051747;28;20402;-82
2021/12/26 06:56:08;;;;;;;2.43;1.40;;;-8.10;99.90;;;;;;5050486;28;20485;-83
2021/12/26 06:58:36;;;;;;;2.90;1.30;;;-8.20;99.90;;;;;;5034201;28;20437;-82
2021/12/26 07:01:05;;;;;;;3.17;1.20;;;-8.30;99.90;;;;;;5042268;28;20459;-82
2021/12/26 07:03:34;;;;;;;3.23;1.10;;;-8.30;99.90;;;;;;5070407;28;20401;-81
2021/12/26 07:06:02;;;;;;;1.95;1.00;;;-8.50;99.90;;;;;;5070437;28;20756;-82
2021/12/26 07:08:30;;;;;;;3.75;1.33;;;-8.50;99.90;;;;;;5053917;28;20548;-82
2021/12/26 07:10:58;;;;;;;1.90;1.10;;;-8.50;99.90;;;;;;5070279;28;20397;-81
2021/12/26 07:13:28;;;;;;;3.45;1.55;;;-8.50;99.90;;;;;;5053079;28;20410;-83
2021/12/26 07:15:56;;;;;;;3.25;1.40;;;-8.40;99.90;;;;;;5030513;28;20429;-82
2021/12/26 07:18:24;;;;;;;2.15;1.30;;;-8.30;99.90;;;;;;5013601;28;20398;-82
2021/12/26 07:20:52;;;;;;;2.00;1.25;;;-8.60;99.90;;;;;;5052493;28;20485;-82
2021/12/26 07:23:38;;;;;;;2.63;1.17;;;-8.80;99.90;;;;;;5038039;28;20472;-82
2021/12/26 07:26:13;;;;;;;3.55;1.50;;;-8.70;99.90;;;;;;5044310;28;20415;-82
2021/12/26 07:28:42;;;;;;;3.50;1.33;;;-8.80;99.90;;;;;;5040420;28;20403;-82
2021/12/26 07:31:14;;;;;;;2.75;1.60;;;-8.80;99.90;;;;;;5047981;28;20403;-83
2021/12/26 07:33:44;;;;;;;3.25;1.40;;;-8.70;99.90;;;;;;5045399;28;20409;-82
2021/12/26 07:36:11;;;;;;;1.85;1.20;;;-8.80;99.90;;;;;;5037025;28;20467;-82
2021/12/26 07:38:45;;;;;;;4.10;1.60;;;-8.90;99.90;;;;;;5034366;28;20414;-81
2021/12/26 07:41:25;;;;;;;3.42;1.60;;;-8.90;99.90;;;;;;5035284;28;20446;-82
2021/12/26 07:43:53;;;;;;;2.78;1.30;;;-9.00;99.90;;;;;;5047847;28;20491;-82
2021/12/26 07:46:39;;;;;;;2.55;1.50;;;-9.00;99.90;;;;;;5031145;28;20396;-83
2021/12/26 07:49:22;;;;;;;2.95;1.50;;;-9.20;99.90;;;;;;5030167;28;20390;-82
2021/12/26 07:52:33;;;;;;;2.92;1.60;;;-9.10;99.90;;;;;;4989408;28;20495;-81
2021/12/26 07:55:20;;;;;;;4.57;1.60;;;-9.20;99.90;;;;;;4989584;28;20396;-83
2021/12/26 07:58:08;;;;;;;2.42;1.48;;;-9.10;99.90;;;;;;4997536;28;20383;-81
2021/12/26 08:00:54;;;;;;;2.17;1.25;;;-9.00;99.90;;;;;;5031274;28;20865;-82
2021/12/26 08:03:37;;;;;;;3.55;1.60;;;-9.10;99.90;;;;;;5029771;28;20504;-82
2021/12/26 08:06:23;;;;;;;2.40;1.33;;;-9.20;99.90;;;;;;5031032;28;20396;-82
2021/12/26 08:08:53;;;;;;;3.83;1.50;;;-9.20;99.90;;;;;;5031079;28;20812;-82
2021/12/26 08:11:21;;;;;;;3.63;1.60;;;-9.30;99.90;;;;;;5013470;28;20393;-82
2021/12/26 08:13:50;;;;;;;2.60;1.45;;;-9.20;99.90;;;;;;5046097;28;20464;-82
2021/12/26 08:16:18;;;;;;;3.73;1.33;;;-9.20;99.90;;;;;;5031023;28;20388;-83
2021/12/26 08:18:46;;;;;;;3.80;1.60;;;-9.30;99.90;;;;;;5031077;28;20386;-82
2021/12/26 08:21:14;;;;;;;4.97;2.33;;;-9.40;99.90;;;;;;5046102;28;20424;-83
2021/12/26 08:23:42;;;;;;;2.50;1.20;;;-9.40;99.90;;;;;;5030897;28;20917;-83
2021/12/26 08:26:09;;;;;;;3.97;1.70;;;-9.40;99.90;;;;;;5033557;28;20390;-81
2021/12/26 08:28:38;;;;;;;2.85;1.67;;;-9.30;99.90;;;;;;5032202;28;20464;-82
2021/12/26 08:31:09;;;;;;;4.37;1.93;;;-9.30;99.90;;;;;;5029956;28;20464;-82
2021/12/26 08:33:39;;;;;;;22.15;11.63;;;-9.40;99.90;;;;;;5033881;28;20417;-81
2021/12/26 08:36:07;;;;;;;12.75;6.53;;;-9.30;99.90;;;;;;5033151;28;20432;-81
2021/12/26 08:38:35;;;;;;;4.70;2.10;;;-9.10;99.90;;;;;;5032983;28;20404;-81
2021/12/26 08:41:03;;;;;;;4.40;1.50;;;-9.20;99.90;;;;;;5041692;28;20466;-80
2021/12/26 08:43:31;;;;;;;4.70;1.65;;;-9.30;99.90;;;;;;5054155;28;20387;-81
2021/12/26 08:46:05;;;;;;;4.32;1.65;;;-9.40;99.90;;;;;;5044137;28;20483;-83
2021/12/26 08:48:33;;;;;;;3.58;1.70;;;-9.30;99.90;;;;;;5043152;28;20946;-81
2021/12/26 08:51:01;;;;;;;4.25;1.70;;;-9.30;99.90;;;;;;5036220;28;20471;-83
2021/12/26 08:53:29;;;;;;;3.70;1.50;;;-9.50;99.90;;;;;;5046441;28;21024;-83
2021/12/26 08:56:00;;;;;;;19.50;10.97;;;-9.50;99.90;;;;;;5036129;28;20389;-80
2021/12/26 08:58:28;;;;;;;5.55;2.15;;;-9.40;99.90;;;;;;5032649;28;20895;-81
2021/12/26 09:00:55;;;;;;;3.28;1.50;;;-9.30;99.90;;;;;;5033977;28;20492;-82
2021/12/26 09:03:23;;;;;;;3.27;1.30;;;-9.30;99.90;;;;;;5035587;28;20394;-81
2021/12/26 09:05:52;;;;;;;3.53;1.80;;;-9.30;99.90;;;;;;5055601;28;20382;-82
2021/12/26 09:08:21;;;;;;;3.97;2.15;;;-9.30;99.90;;;;;;5056042;28;20473;-82
2021/12/26 09:10:49;;;;;;;4.93;1.90;;;-9.40;99.90;;;;;;5053679;28;20388;-81
2021/12/26 09:13:17;;;;;;;4.40;1.60;;;-9.30;99.90;;;;;;5052391;28;20485;-83
2021/12/26 09:15:44;;;;;;;4.93;1.90;;;-9.40;99.90;;;;;;5052414;28;20636;-81
2021/12/26 09:18:12;;;;;;;4.68;2.00;;;-9.30;99.90;;;;;;5052223;28;20396;-81
2021/12/26 09:20:40;;;;;;;3.60;1.67;;;-9.40;99.90;;;;;;5035830;28;20792;-81
2021/12/26 09:23:08;;;;;;;4.18;1.73;;;-9.50;99.90;;;;;;5053428;28;20400;-83
2021/12/26 09:25:36;;;;;;;4.03;1.70;;;-9.40;99.90;;;;;;5035698;28;20390;-82
2021/12/26 09:28:04;;;;;;;5.10;1.60;;;-9.30;99.90;;;;;;5053344;28;20882;-81
2021/12/26 09:30:32;;;;;;;4.43;1.90;;;-9.40;99.90;;;;;;5051975;28;20384;-81
2021/12/26 09:33:00;;;;;;;4.32;1.83;;;-9.40;99.90;;;;;;5053182;28;20457;-84
2021/12/26 09:35:27;;;;;;;3.90;2.00;;;-9.30;99.90;;;;;;5052126;28;20434;-83
2021/12/26 09:37:55;;;;;;;4.68;1.90;;;-9.30;99.90;;;;;;5053626;28;20388;-82
2021/12/26 09:40:24;;;;;;;4.22;1.70;;;-9.30;99.90;;;;;;5053245;28;20384;-83
2021/12/26 09:42:52;;;;;;;5.47;1.77;;;-9.30;99.90;;;;;;5051851;28;20463;-82
2021/12/26 09:45:20;;;;;;;3.92;1.58;;;-9.40;99.90;;;;;;5051900;28;20749;-82
2021/12/26 09:47:51;;;;;;;4.38;1.38;;;-9.40;99.90;;;;;;5051679;28;20773;-82
2021/12/26 09:50:22;;;;;;;4.50;1.50;;;-9.40;99.90;;;;;;5052216;28;20388;-82
2021/12/26 09:52:53;;;;;;;4.53;1.45;;;-9.40;99.90;;;;;;5053016;28;20471;-83
2021/12/26 09:55:25;;;;;;;4.03;1.80;;;-9.40;99.90;;;;;;5051661;28;20388;-83
2021/12/26 09:57:53;;;;;;;4.00;1.88;;;-9.20;99.90;;;;;;5052851;28;20388;-83
2021/12/26 10:00:23;;;;;;;4.80;1.53;;;-9.00;99.90;;;;;;5045832;28;20398;-82
2021/12/26 10:03:14;;;;;;;3.53;1.60;;;-9.10;99.90;;;;;;5032354;28;20405;-82
2021/12/26 10:06:09;;;;;;;3.45;1.50;;;-9.10;99.90;;;;;;5044401;28;20444;-82
2021/12/26 10:08:56;;;;;;;3.72;1.60;;;-9.10;99.90;;;;;;5043598;28;20381;-83
2021/12/26 10:11:35;;;;;;;2.88;1.30;;;-9.20;99.90;;;;;;5015298;28;20410;-82
2021/12/26 10:14:06;;;;;;;2.60;1.45;;;-9.30;99.90;;;;;;5031506;28;20401;-83
2021/12/26 10:16:41;;;;;;;3.17;1.38;;;-9.20;99.90;;;;;;5014995;28;20398;-82
2021/12/26 10:19:09;;;;;;;2.67;1.35;;;-9.10;99.90;;;;;;5035795;28;20438;-82
2021/12/26 10:21:44;;;;;;;2.78;1.35;;;-9.10;99.90;;;;;;5029090;28;20703;-84
2021/12/26 10:24:14;;;;;;;3.72;1.40;;;-9.10;99.90;;;;;;5042348;28;20409;-84
2021/12/26 10:26:55;;;;;;;2.03;1.30;;;-9.20;99.90;;;;;;5037167;28;20404;-80
2021/12/26 10:29:26;;;;;;;3.15;1.38;;;-9.00;99.90;;;;;;5040486;28;20405;-84
2021/12/26 10:31:58;;;;;;;2.13;1.10;;;-8.90;99.90;;;;;;5037756;28;20445;-83
2021/12/26 10:34:26;;;;;;;1.90;1.10;;;-8.90;99.90;;;;;;5040227;28;20487;-83
2021/12/26 10:36:56;;;;;;;4.75;1.40;;;-8.90;99.90;;;;;;5027075;28;20459;-84
2021/12/26 10:39:30;;;;;;;2.03;1.20;;;-8.80;99.90;;;;;;5050666;28;20386;-83
2021/12/26 10:42:02;;;;;;;2.20;1.20;;;-8.80;99.90;;;;;;5033672;28;20387;-83
2021/12/26 10:44:34;;;;;;;3.42;1.40;;;-8.80;99.90;;;;;;5027152;28;20982;-83
2021/12/26 10:47:08;;;;;;;3.55;1.05;;;-8.80;99.90;;;;;;5048243;28;20387;-82
2021/12/26 10:49:56;;;;;;;3.58;1.50;;;-8.80;99.90;;;;;;5043716;28;20827;-83
2021/12/26 10:52:39;;;;;;;4.15;1.50;;;-8.80;99.90;;;;;;5048148;28;20431;-83
2021/12/26 10:55:12;;;;;;;2.30;1.20;;;-9.00;99.90;;;;;;5042007;28;20475;-84
2021/12/26 10:57:40;;;;;;;4.10;1.20;;;-9.00;99.90;;;;;;5050351;28;20793;-83
2021/12/26 11:00:31;;;;;;;2.90;1.30;;;-9.10;99.90;;;;;;5033858;28;20443;-82
2021/12/26 11:03:13;;;;;;;2.92;1.00;;;-9.20;99.90;;;;;;5049471;28;20453;-83
2021/12/26 11:05:44;;;;;;;2.50;1.30;;;-9.10;99.90;;;;;;5047912;28;20476;-82
2021/12/26 11:08:33;;;;;;;2.15;0.90;;;-9.10;99.90;;;;;;5051528;28;20400;-81
2021/12/26 11:11:10;;;;;;;2.15;1.20;;;-9.20;99.90;;;;;;5049913;28;20449;-82
2021/12/26 11:13:38;;;;;;;2.10;1.13;;;-9.30;99.90;;;;;;5050432;28;20430;-84
2021/12/26 11:16:07;;;;;;;3.38;1.48;;;-9.30;99.90;;;;;;5031808;28;20395;-83
2021/12/26 11:18:37;;;;;;;3.90;1.30;;;-9.30;99.90;;;;;;5037246;28;20397;-81
2021/12/26 11:21:08;;;;;;;2.70;1.30;;;-9.30;99.90;;;;;;5031799;28;20384;-83
2021/12/26 11:23:39;;;;;;;2.60;1.17;;;-9.40;99.90;;;;;;5030211;28;20463;-81
2021/12/26 11:26:13;;;;;;;3.22;1.50;;;-9.40;99.90;;;;;;5030253;28;20950;-81
2021/12/26 11:28:45;;;;;;;3.92;1.58;;;-9.30;99.90;;;;;;5042383;28;20405;-83
2021/12/26 11:31:22;;;;;;;3.03;1.30;;;-9.30;99.90;;;;;;5033232;28;20413;-83
2021/12/26 11:33:54;;;;;;;3.63;1.30;;;-9.30;99.90;;;;;;5013766;28;20397;-83
2021/12/26 11:36:23;;;;;;;2.60;1.27;;;-9.20;99.90;;;;;;5030140;28;20473;-84
2021/12/26 11:39:10;;;;;;;2.97;1.13;;;-9.20;99.90;;;;;;5047415;28;20926;-83
2021/12/26 11:42:05;;;;;;;3.03;1.20;;;-9.20;99.90;;;;;;5043859;28;20501;-83
2021/12/26 11:45:21;;;;;;;3.45;1.20;;;-9.20;99.90;;;;;;5045619;28;20434;-83
2021/12/26 11:48:29;;;;;;;3.05;1.30;;;-9.00;99.90;;;;;;5009392;28;20430;-82
2021/12/26 11:51:44;;;;;;;2.80;1.10;;;-8.90;99.90;;;;;;5051075;28;20395;-83
2021/12/26 11:54:57;;;;;;;2.65;1.20;;;-8.80;99.90;;;;;;5053648;28;20402;-82
2021/12/26 11:57:36;;;;;;;2.75;1.20;;;-8.80;99.90;;;;;;5053528;28;20397;-83
2021/12/26 12:00:16;;;;;;;2.80;1.10;;;-8.80;99.90;;;;;;5070039;28;20967;-84
2021/12/26 12:02:48;;;;;;;3.53;1.40;;;-8.80;99.90;;;;;;5069974;28;20381;-82
2021/12/26 12:05:25;;;;;;;3.90;1.55;;;-8.70;99.90;;;;;;5069947;28;20398;-83
2021/12/26 12:08:03;;;;;;;4.72;1.70;;;-8.70;99.90;;;;;;5073138;28;20464;-83
2021/12/26 12:10:57;;;;;;;3.93;1.50;;;-8.90;99.90;;;;;;5057432;28;20451;-83
2021/12/26 12:13:25;;;;;;;4.63;1.50;;;-8.80;99.90;;;;;;5073424;28;20818;-82
2021/12/26 12:16:02;;;;;;;2.95;1.50;;;-8.70;99.90;;;;;;5057132;28;20397;-84
2021/12/26 12:18:31;;;;;;;2.80;1.30;;;-8.60;99.90;;;;;;5057140;28;20980;-83
2021/12/26 12:21:23;;;;;;;4.07;1.65;;;-8.60;99.90;;;;;;5074817;28;20389;-82
2021/12/26 12:24:05;;;;;;;4.68;1.63;;;-8.50;99.90;;;;;;5074759;28;20906;-82
2021/12/26 12:26:45;;;;;;;3.50;1.70;;;-8.60;99.90;;;;;;5074721;28;20421;-83
2021/12/26 12:29:34;;;;;;;3.08;1.45;;;-8.60;99.90;;;;;;5038039;28;20475;-82
2021/12/26 12:32:07;;;;;;;3.55;1.58;;;-8.80;99.90;;;;;;5017088;28;20423;-82
2021/12/26 12:35:05;;;;;;;3.33;1.55;;;-8.80;99.90;;;;;;5032903;28;20405;-82
2021/12/26 12:37:41;;;;;;;3.40;1.33;;;-8.70;99.90;;;;;;5034489;28;20381;-82
2021/12/26 12:40:36;;;;;;;5.68;1.60;;;-8.80;99.90;;;;;;5034367;28;20412;-82
2021/12/26 12:43:10;;;;;;;4.03;1.50;;;-8.80;99.90;;;;;;5033235;28;20468;-82
2021/12/26 12:46:11;;;;;;;4.15;1.67;;;-8.70;99.90;;;;;;5033031;28;20393;-82
2021/12/26 12:48:45;;;;;;;4.57;1.80;;;-8.60;99.90;;;;;;5012092;28;20909;-82
2021/12/26 12:51:15;;;;;;;4.18;1.55;;;-8.70;99.90;;;;;;5033210;28;20397;-82
2021/12/26 12:53:58;;;;;;;4.10;1.95;;;-8.90;99.90;;;;;;5033026;28;20405;-83
2021/12/26 12:56:41;;;;;;;4.00;1.40;;;-8.80;99.90;;;;;;5032837;28;20424;-83
2021/12/26 12:59:20;;;;;;;3.75;1.50;;;-8.90;99.90;;;;;;5033979;28;20416;-82
2021/12/26 13:01:51;;;;;;;3.58;1.67;;;-8.80;99.90;;;;;;5032625;28;20436;-82
2021/12/26 13:04:25;;;;;;;3.83;1.85;;;-8.80;99.90;;;;;;5033955;28;20390;-82
2021/12/26 13:06:59;;;;;;;4.97;2.30;;;-8.80;99.90;;;;;;5033828;28;20389;-82
2021/12/26 13:09:29;;;;;;;5.93;1.88;;;-8.80;99.90;;;;;;5052011;28;20400;-82
2021/12/26 13:12:10;;;;;;;4.17;1.93;;;-8.80;99.90;;;;;;5053590;28;20395;-81
2021/12/26 13:14:51;;;;;;;4.53;1.90;;;-8.90;99.90;;;;;;5052274;28;20404;-83
2021/12/26 13:17:26;;;;;;;4.60;1.73;;;-9.10;99.90;;;;;;5053047;28;20387;-81
2021/12/26 13:20:01;;;;;;;5.50;1.85;;;-9.00;99.90;;;;;;5046167;28;20397;-83
2021/12/26 13:22:50;;;;;;;6.50;2.20;;;-9.40;99.90;;;;;;5033585;28;20431;-82